createdAt,value
2022-11-13T00:01:16.000Z,99619
2022-11-13T00:03:22.000Z,99615
2022-11-13T00:04:49.000Z,99615
2022-11-13T00:06:55.000Z,99618
2022-11-13T00:08:25.000Z,99618
2022-11-13T00:10:32.000Z,99619
2022-11-13T00:13:23.000Z,99615
2022-11-13T00:14:56.000Z,99617
2022-11-13T00:17:02.000Z,99610
2022-11-13T00:18:29.000Z,99611
2022-11-13T00:20:35.000Z,99610
2022-11-13T00:22:02.000Z,99608
2022-11-13T00:24:08.000Z,99611
2022-11-13T00:25:34.000Z,99607
2022-11-13T00:27:41.000Z,99607
2022-11-13T00:29:07.000Z,99606
2022-11-13T00:31:13.000Z,99605
2022-11-13T00:32:40.000Z,99603
2022-11-13T00:34:46.000Z,99602
2022-11-13T00:36:14.000Z,99598
2022-11-13T00:38:20.000Z,99601
2022-11-13T00:39:47.000Z,99596
2022-11-13T00:41:53.000Z,99596
2022-11-13T00:43:19.000Z,99594
2022-11-13T00:45:25.000Z,99597
2022-11-13T00:46:52.000Z,99593
2022-11-13T00:48:58.000Z,99587
2022-11-13T00:51:49.000Z,99587
2022-11-13T00:53:15.000Z,99588
2022-11-13T00:55:24.000Z,99583
2022-11-13T00:56:50.000Z,99583
2022-11-13T00:58:56.000Z,99580
2022-11-13T01:00:23.000Z,99579
2022-11-13T01:02:29.000Z,99579
2022-11-13T01:03:55.000Z,99577
2022-11-13T01:06:02.000Z,99581
2022-11-13T01:07:28.000Z,99574
2022-11-13T01:09:34.000Z,99576
2022-11-13T01:11:01.000Z,99572
2022-11-13T01:13:07.000Z,99571
2022-11-13T01:14:33.000Z,99568
2022-11-13T01:16:39.000Z,99570
2022-11-13T01:18:06.000Z,99571
2022-11-13T01:20:12.000Z,99576
2022-11-13T01:21:38.000Z,99573
2022-11-13T01:23:45.000Z,99573
2022-11-13T01:25:11.000Z,99571
2022-11-13T01:27:17.000Z,99570
2022-11-13T01:30:09.000Z,99567
2022-11-13T01:31:35.000Z,99567
2022-11-13T01:33:41.000Z,99566
2022-11-13T01:35:08.000Z,99563
2022-11-13T01:37:14.000Z,99560
2022-11-13T01:38:40.000Z,99559
2022-11-13T01:40:46.000Z,99553
2022-11-13T01:42:13.000Z,99542
2022-11-13T01:44:19.000Z,99544
2022-11-13T01:45:45.000Z,99543
2022-11-13T01:47:52.000Z,99546
2022-11-13T01:49:18.000Z,99544
2022-11-13T01:51:24.000Z,99549
2022-11-13T01:52:51.000Z,99548
2022-11-13T01:54:57.000Z,99547
2022-11-13T01:56:23.000Z,99549
2022-11-13T01:58:30.000Z,99547
2022-11-13T01:59:57.000Z,99544
2022-11-13T02:02:03.000Z,99546
2022-11-13T02:03:29.000Z,99547
2022-11-13T02:05:35.000Z,99542
2022-11-13T02:08:27.000Z,99540
2022-11-13T02:09:54.000Z,99540
2022-11-13T02:12:00.000Z,99538
2022-11-13T02:13:26.000Z,99532
2022-11-13T02:15:32.000Z,99531
2022-11-13T02:16:59.000Z,99532
2022-11-13T02:19:05.000Z,99529
2022-11-13T02:20:31.000Z,99528
2022-11-13T02:22:38.000Z,99529
2022-11-13T02:24:04.000Z,99524
2022-11-13T02:26:10.000Z,99521
2022-11-13T02:27:37.000Z,99525
2022-11-13T02:29:43.000Z,99524
2022-11-13T02:31:09.000Z,99526
2022-11-13T02:33:15.000Z,99517
2022-11-13T02:34:42.000Z,99518
2022-11-13T02:36:48.000Z,99522
2022-11-13T02:38:14.000Z,99517
2022-11-13T02:40:21.000Z,99518
2022-11-13T02:41:47.000Z,99519
2022-11-13T02:43:53.000Z,99519
2022-11-13T02:46:44.000Z,99509
2022-11-13T02:48:11.000Z,99507
2022-11-13T02:50:17.000Z,99507
2022-11-13T02:51:43.000Z,99513
2022-11-13T02:53:49.000Z,99514
2022-11-13T02:55:16.000Z,99513
2022-11-13T02:57:22.000Z,99513
2022-11-13T02:58:49.000Z,99516
2022-11-13T03:00:55.000Z,99514
2022-11-13T03:02:21.000Z,99515
2022-11-13T03:04:27.000Z,99516
2022-11-13T03:06:31.000Z,99513
2022-11-13T03:08:37.000Z,99515
2022-11-13T03:10:04.000Z,99512
2022-11-13T03:12:10.000Z,99510
2022-11-13T03:13:37.000Z,99508
2022-11-13T03:15:43.000Z,99503
2022-11-13T03:17:10.000Z,99504
2022-11-13T03:19:16.000Z,99505
2022-11-13T03:20:42.000Z,99502
2022-11-13T03:22:48.000Z,99498
2022-11-13T03:25:40.000Z,99502
2022-11-13T03:27:06.000Z,99502
2022-11-13T03:29:12.000Z,99500
2022-11-13T03:30:39.000Z,99502
2022-11-13T03:32:45.000Z,99501
2022-11-13T03:34:11.000Z,99501
2022-11-13T03:36:18.000Z,99496
2022-11-13T03:37:44.000Z,99495
2022-11-13T03:39:50.000Z,99496
2022-11-13T03:41:17.000Z,99502
2022-11-13T03:43:23.000Z,99500
2022-11-13T03:44:49.000Z,99496
2022-11-13T03:46:55.000Z,99493
2022-11-13T03:48:22.000Z,99490
2022-11-13T03:50:28.000Z,99490
2022-11-13T03:51:54.000Z,99485
2022-11-13T03:54:01.000Z,99487
2022-11-13T03:55:27.000Z,99485
2022-11-13T03:57:33.000Z,99481
2022-11-13T03:59:00.000Z,99480
2022-11-13T04:01:06.000Z,99483
2022-11-13T04:03:57.000Z,99474
2022-11-13T04:05:24.000Z,99476
2022-11-13T04:07:30.000Z,99476
2022-11-13T04:08:56.000Z,99474
2022-11-13T04:11:02.000Z,99476
2022-11-13T04:12:29.000Z,99470
2022-11-13T04:14:35.000Z,99471
2022-11-13T04:16:01.000Z,99473
2022-11-13T04:18:08.000Z,99471
2022-11-13T04:19:34.000Z,99470
2022-11-13T04:21:40.000Z,99474
2022-11-13T04:23:07.000Z,99470
2022-11-13T04:25:13.000Z,99468
2022-11-13T04:26:39.000Z,99465
2022-11-13T04:28:45.000Z,99470
2022-11-13T04:30:12.000Z,99468
2022-11-13T04:32:18.000Z,99469
2022-11-13T04:33:44.000Z,99466
2022-11-13T04:35:50.000Z,99467
2022-11-13T04:37:17.000Z,99467
2022-11-13T04:39:23.000Z,99467
2022-11-13T04:42:14.000Z,99467
2022-11-13T04:43:41.000Z,99470
2022-11-13T04:45:47.000Z,99466
2022-11-13T04:47:13.000Z,99464
2022-11-13T04:49:20.000Z,99460
2022-11-13T04:50:46.000Z,99458
2022-11-13T04:52:52.000Z,99453
2022-11-13T04:54:19.000Z,99448
2022-11-13T04:56:30.000Z,99444
2022-11-13T04:57:56.000Z,99447
2022-11-13T05:00:02.000Z,99450
2022-11-13T05:01:29.000Z,99448
2022-11-13T05:03:35.000Z,99445
2022-11-13T05:05:02.000Z,99440
2022-11-13T05:07:11.000Z,99439
2022-11-13T05:08:38.000Z,99441
2022-11-13T05:10:44.000Z,99439
2022-11-13T05:12:10.000Z,99437
2022-11-13T05:14:16.000Z,99434
2022-11-13T05:15:43.000Z,99433
2022-11-13T05:17:49.000Z,99431
2022-11-13T05:20:40.000Z,99426
2022-11-13T05:22:06.000Z,99425
2022-11-13T05:24:12.000Z,99428
2022-11-13T05:25:39.000Z,99431
2022-11-13T05:27:45.000Z,99430
2022-11-13T05:29:12.000Z,99426
2022-11-13T05:31:18.000Z,99424
2022-11-13T05:32:44.000Z,99427
2022-11-13T05:34:50.000Z,99420
2022-11-13T05:36:17.000Z,99422
2022-11-13T05:38:23.000Z,99422
2022-11-13T05:39:49.000Z,99415
2022-11-13T05:41:56.000Z,99415
2022-11-13T05:43:22.000Z,99412
2022-11-13T05:45:28.000Z,99410
2022-11-13T05:46:55.000Z,99406
2022-11-13T05:49:01.000Z,99402
2022-11-13T05:50:27.000Z,99403
2022-11-13T05:52:33.000Z,99400
2022-11-13T05:54:00.000Z,99400
2022-11-13T05:56:06.000Z,99396
2022-11-13T05:58:57.000Z,99398
2022-11-13T06:00:24.000Z,99397
2022-11-13T06:02:30.000Z,99391
2022-11-13T06:03:56.000Z,99388
2022-11-13T06:06:02.000Z,99386
2022-11-13T06:07:29.000Z,99387
2022-11-13T06:09:35.000Z,99384
2022-11-13T06:11:01.000Z,99389
2022-11-13T06:13:08.000Z,99388
2022-11-13T06:14:34.000Z,99388
2022-11-13T06:16:40.000Z,99386
2022-11-13T06:18:07.000Z,99382
2022-11-13T06:20:13.000Z,99377
2022-11-13T06:21:39.000Z,99375
2022-11-13T06:23:45.000Z,99378
2022-11-13T06:25:12.000Z,99374
2022-11-13T06:27:18.000Z,99370
2022-11-13T06:28:45.000Z,99368
2022-11-13T06:30:51.000Z,99365
2022-11-13T06:32:17.000Z,99362
2022-11-13T06:34:23.000Z,99363
2022-11-13T06:37:15.000Z,99368
2022-11-13T06:38:41.000Z,99367
2022-11-13T06:40:47.000Z,99366
2022-11-13T06:42:14.000Z,99365
2022-11-13T06:44:20.000Z,99364
2022-11-13T06:45:46.000Z,99364
2022-11-13T06:47:53.000Z,99362
2022-11-13T06:49:19.000Z,99366
2022-11-13T06:51:25.000Z,99365
2022-11-13T06:52:52.000Z,99361
2022-11-13T06:54:58.000Z,99356
2022-11-13T06:56:24.000Z,99361
2022-11-13T06:58:30.000Z,99360
2022-11-13T06:59:58.000Z,99364
2022-11-13T07:02:04.000Z,99365
2022-11-13T07:03:31.000Z,99367
2022-11-13T07:05:37.000Z,99365
2022-11-13T07:07:03.000Z,99365
2022-11-13T07:09:10.000Z,99362
2022-11-13T07:10:36.000Z,99365
2022-11-13T07:12:42.000Z,99367
2022-11-13T07:15:33.000Z,99366
2022-11-13T07:17:00.000Z,99362
2022-11-13T07:19:16.000Z,99361
2022-11-13T07:20:43.000Z,99356
2022-11-13T07:22:49.000Z,99352
2022-11-13T07:24:15.000Z,99354
2022-11-13T07:26:23.000Z,99349
2022-11-13T07:27:49.000Z,99353
2022-11-13T07:29:56.000Z,99348
2022-11-13T07:31:29.000Z,99342
2022-11-13T07:33:35.000Z,99337
2022-11-13T07:35:02.000Z,99339
2022-11-13T07:37:08.000Z,99336
2022-11-13T07:38:34.000Z,99336
2022-11-13T07:40:40.000Z,99339
2022-11-13T07:42:07.000Z,99337
2022-11-13T07:44:13.000Z,99336
2022-11-13T07:46:06.000Z,99330
2022-11-13T07:48:12.000Z,99329
2022-11-13T07:49:39.000Z,99331
2022-11-13T07:51:45.000Z,99332
2022-11-13T07:54:36.000Z,99332
2022-11-13T07:56:03.000Z,99330
2022-11-13T07:58:09.000Z,99327
2022-11-13T07:59:35.000Z,99330
2022-11-13T08:01:41.000Z,99330
2022-11-13T08:03:08.000Z,99326
2022-11-13T08:05:14.000Z,99329
2022-11-13T08:06:40.000Z,99327
2022-11-13T08:08:46.000Z,99327
2022-11-13T08:10:13.000Z,99322
2022-11-13T08:12:19.000Z,99323
2022-11-13T08:13:46.000Z,99319
2022-11-13T08:15:52.000Z,99319
2022-11-13T08:17:18.000Z,99324
2022-11-13T08:19:24.000Z,99322
2022-11-13T08:20:51.000Z,99321
2022-11-13T08:22:57.000Z,99323
2022-11-13T08:24:24.000Z,99324
2022-11-13T08:26:30.000Z,99322
2022-11-13T08:27:56.000Z,99323
2022-11-13T08:30:03.000Z,99319
2022-11-13T08:32:54.000Z,99316
2022-11-13T08:34:20.000Z,99315
2022-11-13T08:36:26.000Z,99312
2022-11-13T08:37:53.000Z,99307
2022-11-13T08:39:59.000Z,99304
2022-11-13T08:41:26.000Z,99300
2022-11-13T08:43:32.000Z,99301
2022-11-13T08:44:59.000Z,99301
2022-11-13T08:47:05.000Z,99295
2022-11-13T08:48:32.000Z,99290
2022-11-13T08:50:38.000Z,99286
2022-11-13T08:52:04.000Z,99290
2022-11-13T08:54:10.000Z,99291
2022-11-13T08:55:37.000Z,99289
2022-11-13T08:57:43.000Z,99289
2022-11-13T08:59:10.000Z,99287
2022-11-13T09:01:16.000Z,99288
2022-11-13T09:02:42.000Z,99285
2022-11-13T09:04:48.000Z,99278
2022-11-13T09:06:15.000Z,99276
2022-11-13T09:08:21.000Z,99271
2022-11-13T09:11:12.000Z,99268
2022-11-13T09:12:38.000Z,99267
2022-11-13T09:14:44.000Z,99263
2022-11-13T09:16:11.000Z,99261
2022-11-13T09:18:17.000Z,99254
2022-11-13T09:19:44.000Z,99249
2022-11-13T09:21:50.000Z,99243
2022-11-13T09:23:16.000Z,99247
2022-11-13T09:25:22.000Z,99249
2022-11-13T09:26:49.000Z,99254
2022-11-13T09:28:55.000Z,99257
2022-11-13T09:30:22.000Z,99257
2022-11-13T09:32:28.000Z,99254
2022-11-13T09:33:54.000Z,99254
2022-11-13T09:36:00.000Z,99253
2022-11-13T09:37:27.000Z,99250
2022-11-13T09:39:33.000Z,99249
2022-11-13T09:41:00.000Z,99246
2022-11-13T09:43:06.000Z,99243
2022-11-13T09:44:32.000Z,99241
2022-11-13T09:46:38.000Z,99239
2022-11-13T09:49:30.000Z,99226
2022-11-13T09:50:56.000Z,99224
2022-11-13T09:53:02.000Z,99221
2022-11-13T09:54:29.000Z,99219
2022-11-13T09:56:35.000Z,99223
2022-11-13T09:58:02.000Z,99219
2022-11-13T10:00:08.000Z,99212
2022-11-13T10:01:34.000Z,99210
2022-11-13T10:03:40.000Z,99206
2022-11-13T10:05:27.000Z,99208
2022-11-13T10:07:33.000Z,99207
2022-11-13T10:08:59.000Z,99204
2022-11-13T10:11:05.000Z,99204
2022-11-13T10:12:32.000Z,99204
2022-11-13T10:14:38.000Z,99202
2022-11-13T10:16:05.000Z,99199
2022-11-13T10:18:11.000Z,99193
2022-11-13T10:19:37.000Z,99191
2022-11-13T10:21:43.000Z,99190
2022-11-13T10:23:10.000Z,99187
2022-11-13T10:25:16.000Z,99187
2022-11-13T10:28:07.000Z,99185
2022-11-13T10:30:09.000Z,99182
2022-11-13T10:32:16.000Z,99176
2022-11-13T10:33:42.000Z,99174
2022-11-13T10:35:48.000Z,99176
2022-11-13T10:37:15.000Z,99169
2022-11-13T10:39:21.000Z,99165
2022-11-13T10:40:47.000Z,99159
2022-11-13T10:42:54.000Z,99157
2022-11-13T10:44:20.000Z,99154
2022-11-13T10:46:26.000Z,99149
2022-11-13T10:47:53.000Z,99142
2022-11-13T10:50:10.000Z,99137
2022-11-13T10:51:37.000Z,99133
2022-11-13T10:53:43.000Z,99123
2022-11-13T10:55:09.000Z,99124
2022-11-13T10:57:15.000Z,99123
2022-11-13T10:58:42.000Z,99121
2022-11-13T11:00:48.000Z,99115
2022-11-13T11:02:15.000Z,99110
2022-11-13T11:04:21.000Z,99111
2022-11-13T11:07:12.000Z,99108
2022-11-13T11:08:47.000Z,99104
2022-11-13T11:10:53.000Z,99092
2022-11-13T11:12:19.000Z,99087
2022-11-13T11:14:30.000Z,99088
2022-11-13T11:15:56.000Z,99085
2022-11-13T11:18:02.000Z,99088
2022-11-13T11:19:29.000Z,99082
2022-11-13T11:21:35.000Z,99081
2022-11-13T11:23:02.000Z,99082
2022-11-13T11:25:08.000Z,99085
2022-11-13T11:26:34.000Z,99081
2022-11-13T11:28:40.000Z,99079
2022-11-13T11:30:07.000Z,99078
2022-11-13T11:32:13.000Z,99077
2022-11-13T11:33:39.000Z,99071
2022-11-13T11:35:46.000Z,99066
2022-11-13T11:37:12.000Z,99060
2022-11-13T11:39:18.000Z,99061
2022-11-13T11:40:45.000Z,99055
2022-11-13T11:42:51.000Z,99055
2022-11-13T11:45:42.000Z,99045
2022-11-13T11:47:08.000Z,99037
2022-11-13T11:49:14.000Z,99033
2022-11-13T11:50:41.000Z,99033
2022-11-13T11:52:47.000Z,99026
2022-11-13T11:54:13.000Z,99021
2022-11-13T11:56:20.000Z,99019
2022-11-13T11:57:46.000Z,99017
2022-11-13T11:59:52.000Z,99009
2022-11-13T12:01:19.000Z,99006
2022-11-13T12:03:25.000Z,98994
2022-11-13T12:04:51.000Z,98992
2022-11-13T12:06:58.000Z,98986
2022-11-13T12:08:24.000Z,98980
2022-11-13T12:10:30.000Z,98979
2022-11-13T12:11:57.000Z,98976
2022-11-13T12:14:03.000Z,98971
2022-11-13T12:15:29.000Z,98970
2022-11-13T12:17:35.000Z,98964
2022-11-13T12:19:02.000Z,98961
2022-11-13T12:21:08.000Z,98954
2022-11-13T12:23:59.000Z,98944
2022-11-13T12:25:26.000Z,98942
2022-11-13T12:27:32.000Z,98944
2022-11-13T12:28:59.000Z,98947
2022-11-13T12:31:05.000Z,98939
2022-11-13T12:32:31.000Z,98936
2022-11-13T12:34:37.000Z,98933
2022-11-13T12:36:04.000Z,98936
2022-11-13T12:38:10.000Z,98936
2022-11-13T12:39:36.000Z,98937
2022-11-13T12:41:42.000Z,98933
2022-11-13T12:43:09.000Z,98929
2022-11-13T12:45:15.000Z,98925
2022-11-13T12:46:42.000Z,98922
2022-11-13T12:48:48.000Z,98918
2022-11-13T12:50:14.000Z,98919
2022-11-13T12:52:20.000Z,98924
2022-11-13T12:53:47.000Z,98924
2022-11-13T12:55:53.000Z,98917
2022-11-13T12:57:19.000Z,98916
2022-11-13T12:59:26.000Z,98913
2022-11-13T13:02:22.000Z,98908
2022-11-13T13:03:49.000Z,98910
2022-11-13T13:05:55.000Z,98911
2022-11-13T13:07:22.000Z,98909
2022-11-13T13:09:28.000Z,98906
2022-11-13T13:10:54.000Z,98906
2022-11-13T13:13:00.000Z,98904
2022-11-13T13:14:27.000Z,98902
2022-11-13T13:16:33.000Z,98895
2022-11-13T13:18:00.000Z,98892
2022-11-13T13:20:06.000Z,98890
2022-11-13T13:21:32.000Z,98889
2022-11-13T13:23:38.000Z,98892
2022-11-13T13:25:05.000Z,98885
2022-11-13T13:27:11.000Z,98886
2022-11-13T13:28:37.000Z,98887
2022-11-13T13:30:43.000Z,98886
2022-11-13T13:32:10.000Z,98883
2022-11-13T13:34:21.000Z,98884
2022-11-13T13:35:48.000Z,98882
2022-11-13T13:37:54.000Z,98878
2022-11-13T13:40:45.000Z,98877
2022-11-13T13:42:12.000Z,98878
2022-11-13T13:44:18.000Z,98871
2022-11-13T13:45:44.000Z,98869
2022-11-13T13:47:50.000Z,98864
2022-11-13T13:49:17.000Z,98860
2022-11-13T13:51:23.000Z,98859
2022-11-13T13:52:49.000Z,98858
2022-11-13T13:55:01.000Z,98854
2022-11-13T13:56:28.000Z,98850
2022-11-13T13:58:34.000Z,98847
2022-11-13T14:00:01.000Z,98843
2022-11-13T14:02:07.000Z,98841
2022-11-13T14:03:33.000Z,98839
2022-11-13T14:05:40.000Z,98835
2022-11-13T14:07:06.000Z,98831
2022-11-13T14:09:12.000Z,98832
2022-11-13T14:10:39.000Z,98831
2022-11-13T14:12:45.000Z,98827
2022-11-13T14:14:11.000Z,98827
2022-11-13T14:16:17.000Z,98825
2022-11-13T14:19:08.000Z,98826
2022-11-13T14:20:35.000Z,98825
2022-11-13T14:22:41.000Z,98826
2022-11-13T14:24:08.000Z,98818
2022-11-13T14:26:14.000Z,98818
2022-11-13T14:27:40.000Z,98817
2022-11-13T14:29:46.000Z,98811
2022-11-13T14:31:13.000Z,98813
2022-11-13T14:33:19.000Z,98809
2022-11-13T14:34:45.000Z,98808
2022-11-13T14:36:51.000Z,98801
2022-11-13T14:38:18.000Z,98798
2022-11-13T14:40:24.000Z,98795
2022-11-13T14:41:50.000Z,98797
2022-11-13T14:43:57.000Z,98790
2022-11-13T14:45:23.000Z,98794
2022-11-13T14:47:29.000Z,98788
2022-11-13T14:48:56.000Z,98785
2022-11-13T14:51:02.000Z,98785
2022-11-13T14:52:28.000Z,98782
2022-11-13T14:54:34.000Z,98776
2022-11-13T14:58:04.000Z,98773
2022-11-13T14:59:30.000Z,98772
2022-11-13T15:01:36.000Z,98768
2022-11-13T15:03:03.000Z,98766
2022-11-13T15:05:09.000Z,98766
2022-11-13T15:06:36.000Z,98767
2022-11-13T15:08:42.000Z,98766
2022-11-13T15:10:08.000Z,98768
2022-11-13T15:12:14.000Z,98764
2022-11-13T15:13:41.000Z,98764
2022-11-13T15:15:47.000Z,98757
2022-11-13T15:17:13.000Z,98755
2022-11-13T15:19:19.000Z,98754
2022-11-13T15:20:46.000Z,98755
2022-11-13T15:22:52.000Z,98748
2022-11-13T15:24:19.000Z,98748
2022-11-13T15:26:25.000Z,98745
2022-11-13T15:27:51.000Z,98741
2022-11-13T15:29:57.000Z,98741
2022-11-13T15:31:24.000Z,98736
2022-11-13T15:33:30.000Z,98743
2022-11-13T15:36:22.000Z,98746
2022-11-13T15:37:48.000Z,98745
2022-11-13T15:39:54.000Z,98753
2022-11-13T15:41:21.000Z,98750
2022-11-13T15:43:27.000Z,98748
2022-11-13T15:44:54.000Z,98747
2022-11-13T15:47:00.000Z,98747
2022-11-13T15:48:27.000Z,98746
2022-11-13T15:50:33.000Z,98741
2022-11-13T15:51:59.000Z,98742
2022-11-13T15:54:05.000Z,98740
2022-11-13T15:55:32.000Z,98741
2022-11-13T15:57:38.000Z,98745
2022-11-13T15:59:05.000Z,98742
2022-11-13T16:01:11.000Z,98740
2022-11-13T16:02:37.000Z,98748
2022-11-13T16:04:44.000Z,98743
2022-11-13T16:06:23.000Z,98744
2022-11-13T16:08:29.000Z,98743
2022-11-13T16:09:55.000Z,98750
2022-11-13T16:12:01.000Z,98748
2022-11-13T16:14:52.000Z,98747
2022-11-13T16:16:19.000Z,98748
2022-11-13T16:18:25.000Z,98746
2022-11-13T16:19:51.000Z,98752
2022-11-13T16:21:58.000Z,98753
2022-11-13T16:23:24.000Z,98755
2022-11-13T16:25:30.000Z,98758
2022-11-13T16:26:57.000Z,98758
2022-11-13T16:29:03.000Z,98762
2022-11-13T16:30:40.000Z,98757
2022-11-13T16:32:46.000Z,98759
2022-11-13T16:34:12.000Z,98766
2022-11-13T16:36:18.000Z,98765
2022-11-13T16:37:45.000Z,98764
2022-11-13T16:39:51.000Z,98767
2022-11-13T16:41:18.000Z,98764
2022-11-13T16:43:24.000Z,98767
2022-11-13T16:44:50.000Z,98766
2022-11-13T16:46:56.000Z,98773
2022-11-13T16:48:23.000Z,98767
2022-11-13T16:50:29.000Z,98770
2022-11-13T16:53:20.000Z,98768
2022-11-13T16:54:46.000Z,98767
2022-11-13T16:56:52.000Z,98763
2022-11-13T16:58:19.000Z,98758
2022-11-13T17:00:25.000Z,98759
2022-11-13T17:01:51.000Z,98754
2022-11-13T17:03:57.000Z,98751
2022-11-13T17:05:24.000Z,98756
2022-11-13T17:07:30.000Z,98755
2022-11-13T17:08:57.000Z,98753
2022-11-13T17:11:03.000Z,98755
2022-11-13T17:12:29.000Z,98755
2022-11-13T17:14:36.000Z,98753
2022-11-13T17:16:02.000Z,98755
2022-11-13T17:18:08.000Z,98751
2022-11-13T17:19:35.000Z,98749
2022-11-13T17:21:41.000Z,98748
2022-11-13T17:23:10.000Z,98750
2022-11-13T17:25:16.000Z,98747
2022-11-13T17:26:43.000Z,98745
2022-11-13T17:28:49.000Z,98751
2022-11-13T17:31:40.000Z,98748
2022-11-13T17:33:07.000Z,98753
2022-11-13T17:35:13.000Z,98757
2022-11-13T17:36:39.000Z,98755
2022-11-13T17:38:45.000Z,98753
2022-11-13T17:40:12.000Z,98749
2022-11-13T17:42:18.000Z,98748
2022-11-13T17:43:44.000Z,98746
2022-11-13T17:45:51.000Z,98750
2022-11-13T17:47:17.000Z,98751
2022-11-13T17:49:23.000Z,98744
2022-11-13T17:50:50.000Z,98744
2022-11-13T17:52:56.000Z,98743
2022-11-13T17:54:22.000Z,98745
2022-11-13T17:56:28.000Z,98745
2022-11-13T17:57:55.000Z,98742
2022-11-13T18:00:01.000Z,98737
2022-11-13T18:01:28.000Z,98741
2022-11-13T18:03:34.000Z,98741
2022-11-13T18:05:00.000Z,98741
2022-11-13T18:07:07.000Z,98738
2022-11-13T18:09:58.000Z,98732
2022-11-13T18:11:25.000Z,98738
2022-11-13T18:13:31.000Z,98739
2022-11-13T18:14:58.000Z,98738
2022-11-13T18:17:04.000Z,98736
2022-11-13T18:18:30.000Z,98733
2022-11-13T18:20:37.000Z,98745
2022-11-13T18:22:03.000Z,98743
2022-11-13T18:24:09.000Z,98740
2022-11-13T18:25:36.000Z,98743
2022-11-13T18:27:45.000Z,98744
2022-11-13T18:29:12.000Z,98749
2022-11-13T18:31:18.000Z,98748
2022-11-13T18:32:45.000Z,98748
2022-11-13T18:34:51.000Z,98749
2022-11-13T18:36:17.000Z,98752
2022-11-13T18:38:23.000Z,98752
2022-11-13T18:39:50.000Z,98744
2022-11-13T18:41:56.000Z,98748
2022-11-13T18:43:22.000Z,98748
2022-11-13T18:45:29.000Z,98748
2022-11-13T18:48:20.000Z,98749
2022-11-13T18:49:46.000Z,98746
2022-11-13T18:51:52.000Z,98745
2022-11-13T18:53:19.000Z,98749
2022-11-13T18:55:25.000Z,98749
2022-11-13T18:56:51.000Z,98748
2022-11-13T18:58:57.000Z,98744
2022-11-13T19:00:24.000Z,98746
2022-11-13T19:02:30.000Z,98740
2022-11-13T19:03:57.000Z,98739
2022-11-13T19:06:29.000Z,98739
2022-11-13T19:07:55.000Z,98730
2022-11-13T19:10:01.000Z,98733
2022-11-13T19:11:28.000Z,98728
2022-11-13T19:13:34.000Z,98727
2022-11-13T19:15:00.000Z,98727
2022-11-13T19:17:06.000Z,98724
2022-11-13T19:18:33.000Z,98717
2022-11-13T19:20:39.000Z,98710
2022-11-13T19:22:06.000Z,98714
2022-11-13T19:24:12.000Z,98717
2022-11-13T19:27:03.000Z,98708
2022-11-13T19:28:29.000Z,98709
2022-11-13T19:30:36.000Z,98708
2022-11-13T19:32:02.000Z,98708
2022-11-13T19:34:09.000Z,98707
2022-11-13T19:35:35.000Z,98707
2022-11-13T19:37:41.000Z,98702
2022-11-13T19:39:08.000Z,98704
2022-11-13T19:41:14.000Z,98707
2022-11-13T19:42:40.000Z,98707
2022-11-13T19:44:48.000Z,98708
2022-11-13T19:46:14.000Z,98709
2022-11-13T19:48:20.000Z,98707
2022-11-13T19:49:47.000Z,98707
2022-11-13T19:51:53.000Z,98710
2022-11-13T19:53:19.000Z,98708
2022-11-13T19:55:26.000Z,98708
2022-11-13T19:56:52.000Z,98709
2022-11-13T19:58:58.000Z,98707
2022-11-13T20:00:25.000Z,98703
2022-11-13T20:02:31.000Z,98703
2022-11-13T20:05:22.000Z,98704
2022-11-13T20:06:49.000Z,98703
2022-11-13T20:08:55.000Z,98704
2022-11-13T20:10:21.000Z,98704
2022-11-13T20:12:27.000Z,98701
2022-11-13T20:13:54.000Z,98704
2022-11-13T20:16:00.000Z,98703
2022-11-13T20:17:26.000Z,98702
2022-11-13T20:19:32.000Z,98704
2022-11-13T20:20:59.000Z,98702
2022-11-13T20:23:05.000Z,98699
2022-11-13T20:24:31.000Z,98701
2022-11-13T20:26:38.000Z,98703
2022-11-13T20:28:04.000Z,98702
2022-11-13T20:30:10.000Z,98705
2022-11-13T20:31:37.000Z,98703
2022-11-13T20:33:43.000Z,98702
2022-11-13T20:35:09.000Z,98700
2022-11-13T20:37:16.000Z,98703
2022-11-13T20:38:42.000Z,98706
2022-11-13T20:40:48.000Z,98702
2022-11-13T20:43:39.000Z,98702
2022-11-13T20:45:06.000Z,98702
2022-11-13T20:47:12.000Z,98698
2022-11-13T20:48:38.000Z,98694
2022-11-13T20:50:44.000Z,98694
2022-11-13T20:52:11.000Z,98693
2022-11-13T20:54:17.000Z,98692
2022-11-13T20:55:44.000Z,98696
2022-11-13T20:57:50.000Z,98693
2022-11-13T20:59:16.000Z,98691
2022-11-13T21:01:22.000Z,98691
2022-11-13T21:02:49.000Z,98692
2022-11-13T21:04:55.000Z,98691
2022-11-13T21:06:22.000Z,98689
2022-11-13T21:08:28.000Z,98690
2022-11-13T21:09:55.000Z,98689
2022-11-13T21:12:01.000Z,98686
2022-11-13T21:13:27.000Z,98684
2022-11-13T21:15:33.000Z,98685
2022-11-13T21:17:00.000Z,98686
2022-11-13T21:19:06.000Z,98685
2022-11-13T21:21:57.000Z,98690
2022-11-13T21:23:24.000Z,98691
2022-11-13T21:25:30.000Z,98687
2022-11-13T21:26:56.000Z,98681
2022-11-13T21:29:02.000Z,98678
2022-11-13T21:30:29.000Z,98684
2022-11-13T21:32:35.000Z,98678
2022-11-13T21:34:02.000Z,98676
2022-11-13T21:36:08.000Z,98673
2022-11-13T21:37:34.000Z,98675
2022-11-13T21:39:40.000Z,98671
2022-11-13T21:41:07.000Z,98670
2022-11-13T21:43:13.000Z,98668
2022-11-13T21:44:39.000Z,98670
2022-11-13T21:46:45.000Z,98674
2022-11-13T21:48:12.000Z,98670
2022-11-13T21:50:18.000Z,98667
2022-11-13T21:51:45.000Z,98669
2022-11-13T21:53:51.000Z,98665
2022-11-13T21:55:17.000Z,98662
2022-11-13T21:57:24.000Z,98660
2022-11-13T22:00:15.000Z,98657
2022-11-13T22:01:42.000Z,98654
2022-11-13T22:03:48.000Z,98656
2022-11-13T22:05:14.000Z,98657
2022-11-13T22:07:20.000Z,98654
2022-11-13T22:08:47.000Z,98650
2022-11-13T22:10:53.000Z,98655
2022-11-13T22:12:20.000Z,98652
2022-11-13T22:14:26.000Z,98648
2022-11-13T22:15:52.000Z,98646
2022-11-13T22:17:58.000Z,98645
2022-11-13T22:19:25.000Z,98639
2022-11-13T22:21:36.000Z,98641
2022-11-13T22:23:02.000Z,98638
2022-11-13T22:25:08.000Z,98641
2022-11-13T22:26:35.000Z,98639
2022-11-13T22:28:41.000Z,98645
2022-11-13T22:30:07.000Z,98643
2022-11-13T22:32:13.000Z,98641
2022-11-13T22:33:40.000Z,98641
2022-11-13T22:35:53.000Z,98636
2022-11-13T22:38:44.000Z,98632
2022-11-13T22:40:11.000Z,98633
2022-11-13T22:42:14.000Z,98628
2022-11-13T22:43:41.000Z,98626
2022-11-13T22:45:47.000Z,98623
2022-11-13T22:47:14.000Z,98625
2022-11-13T22:49:20.000Z,98621
2022-11-13T22:50:46.000Z,98620
2022-11-13T22:52:52.000Z,98619
2022-11-13T22:54:19.000Z,98618
2022-11-13T22:56:25.000Z,98615
2022-11-13T22:57:52.000Z,98611
2022-11-13T22:59:58.000Z,98608
2022-11-13T23:01:24.000Z,98608
2022-11-13T23:03:30.000Z,98603
2022-11-13T23:04:57.000Z,98605
2022-11-13T23:07:03.000Z,98602
2022-11-13T23:08:30.000Z,98602
2022-11-13T23:10:37.000Z,98603
2022-11-13T23:12:03.000Z,98601
2022-11-13T23:14:09.000Z,98599
2022-11-13T23:17:00.000Z,98598
2022-11-13T23:18:26.000Z,98593
2022-11-13T23:20:33.000Z,98591
2022-11-13T23:21:59.000Z,98584
2022-11-13T23:24:06.000Z,98584
2022-11-13T23:25:32.000Z,98579
2022-11-13T23:27:38.000Z,98578
2022-11-13T23:29:05.000Z,98575
2022-11-13T23:31:11.000Z,98574
2022-11-13T23:32:38.000Z,98574
2022-11-13T23:34:44.000Z,98574